ECO2053 SBRF-SBPL
Flight info
| Callsign | ECO2053 |
|---|---|
| Flight time | 1h 6m |
| Altitude | 34000 |
| Route | MIGUP DCT NIGTU DCT |
| Aircraft | B738/M-SDE2E3FGHIRWXY/LB1 |
Departure
| Time | 2026-04-15 13:10 |
|---|---|
| Airport | Recife/Guararapes - Gilberto Freyre International Airport (SBRF) |
Arrival
| Time | 2026-04-15 14:16 |
|---|---|
| Airport | Senador Nilo Coelho Airport (SBPL) |
| Time | Latitude | Longitude | Altitude | Speed | Heading |
|---|---|---|---|---|---|
| 2026-04-15 12:45 | -8.12744 | -34.92061 | 42 ft | 0 kts | 114° |
| 2026-04-15 13:01 | -8.12741 | -34.92072 | 42 ft | 2 kts | 94° |
| 2026-04-15 13:01 | -8.12741 | -34.92076 | 42 ft | 2 kts | 95° |
| 2026-04-15 13:02 | -8.12738 | -34.92091 | 42 ft | 2 kts | 103° |
| 2026-04-15 13:02 | -8.12736 | -34.92103 | 42 ft | 1 kts | 119° |
| 2026-04-15 13:02 | -8.12731 | -34.92108 | 42 ft | 0 kts | 171° |
| 2026-04-15 13:03 | -8.12725 | -34.92109 | 42 ft | 0 kts | 165° |
| 2026-04-15 13:05 | -8.12750 | -34.92103 | 42 ft | 6 kts | 170° |
| 2026-04-15 13:05 | -8.12783 | -34.92070 | 42 ft | 9 kts | 65° |
| 2026-04-15 13:06 | -8.12728 | -34.92097 | 42 ft | 13 kts | 291° |
| 2026-04-15 13:06 | -8.12661 | -34.92164 | 42 ft | 15 kts | 341° |
| 2026-04-15 13:06 | -8.12547 | -34.92204 | 42 ft | 18 kts | 343° |
| 2026-04-15 13:06 | -8.12427 | -34.92244 | 42 ft | 18 kts | 341° |
| 2026-04-15 13:07 | -8.12288 | -34.92291 | 42 ft | 23 kts | 342° |
| 2026-04-15 13:07 | -8.12117 | -34.92343 | 42 ft | 27 kts | 344° |
| 2026-04-15 13:07 | -8.11923 | -34.92408 | 42 ft | 30 kts | 335° |
| 2026-04-15 13:07 | -8.11739 | -34.92471 | 42 ft | 24 kts | 344° |
| 2026-04-15 13:08 | -8.11623 | -34.92513 | 42 ft | 0 kts | 331° |
| 2026-04-15 13:08 | -8.11614 | -34.92518 | 42 ft | 4 kts | 331° |
| 2026-04-15 13:08 | -8.11560 | -34.92552 | 42 ft | 12 kts | 324° |
| 2026-04-15 13:09 | -8.11478 | -34.92624 | 42 ft | 18 kts | 319° |
| 2026-04-15 13:09 | -8.11439 | -34.92710 | 42 ft | 9 kts | 195° |
| 2026-04-15 13:09 | -8.11455 | -34.92707 | 42 ft | 0 kts | 156° |
| 2026-04-15 13:09 | -8.11456 | -34.92707 | 42 ft | 2 kts | 156° |
| 2026-04-15 13:10 | -8.11774 | -34.92602 | 42 ft | 90 kts | 162° |
| 2026-04-15 13:10 | -8.12623 | -34.92326 | 43 ft | 161 kts | 161° |
| 2026-04-15 13:10 | -8.13716 | -34.91960 | 773 ft | 168 kts | 160° |
| 2026-04-15 13:10 | -8.14825 | -34.91571 | 1561 ft | 178 kts | 160° |
| 2026-04-15 13:11 | -8.16098 | -34.91352 | 1948 ft | 202 kts | 185° |
| 2026-04-15 13:11 | -8.17412 | -34.92047 | 2243 ft | 231 kts | 225° |
| 2026-04-15 13:11 | -8.18085 | -34.93560 | 2801 ft | 244 kts | 253° |
| 2026-04-15 13:11 | -8.18626 | -34.95182 | 3407 ft | 248 kts | 245° |
| 2026-04-15 13:12 | -8.19290 | -34.96800 | 4081 ft | 250 kts | 245° |
| 2026-04-15 13:12 | -8.19936 | -34.98402 | 4736 ft | 251 kts | 245° |
| 2026-04-15 13:12 | -8.20581 | -35.00044 | 5382 ft | 253 kts | 246° |
| 2026-04-15 13:12 | -8.21221 | -35.01708 | 5926 ft | 258 kts | 246° |
| 2026-04-15 13:13 | -8.21859 | -35.03399 | 5963 ft | 258 kts | 246° |
| 2026-04-15 13:13 | -8.22490 | -35.05094 | 5965 ft | 253 kts | 246° |
| 2026-04-15 13:13 | -8.23106 | -35.06765 | 5969 ft | 255 kts | 247° |
| 2026-04-15 13:13 | -8.23720 | -35.08438 | 5967 ft | 255 kts | 247° |
| 2026-04-15 13:14 | -8.24339 | -35.10126 | 5966 ft | 255 kts | 247° |
| 2026-04-15 13:14 | -8.24956 | -35.11801 | 5966 ft | 255 kts | 246° |
| 2026-04-15 13:14 | -8.25572 | -35.13466 | 5967 ft | 255 kts | 246° |
| 2026-04-15 13:14 | -8.26200 | -35.15147 | 5966 ft | 255 kts | 246° |
| 2026-04-15 13:15 | -8.26812 | -35.16811 | 5995 ft | 258 kts | 248° |
| 2026-04-15 13:15 | -8.27417 | -35.18538 | 6619 ft | 258 kts | 248° |
| 2026-04-15 13:15 | -8.28019 | -35.20237 | 7223 ft | 259 kts | 247° |
| 2026-04-15 13:15 | -8.28636 | -35.21939 | 7809 ft | 260 kts | 247° |
| 2026-04-15 13:16 | -8.29266 | -35.23653 | 8382 ft | 261 kts | 247° |
| 2026-04-15 13:16 | -8.29904 | -35.25362 | 8934 ft | 263 kts | 246° |
| 2026-04-15 13:16 | -8.30553 | -35.27088 | 9476 ft | 264 kts | 246° |
| 2026-04-15 13:16 | -8.31211 | -35.28828 | 10003 ft | 266 kts | 246° |
| 2026-04-15 13:17 | -8.31876 | -35.30580 | 10510 ft | 275 kts | 246° |
| 2026-04-15 13:17 | -8.32551 | -35.32364 | 11382 ft | 276 kts | 246° |
| 2026-04-15 13:17 | -8.33269 | -35.34255 | 11666 ft | 300 kts | 247° |
| 2026-04-15 13:17 | -8.34038 | -35.36326 | 11884 ft | 325 kts | 248° |
| 2026-04-15 13:18 | -8.34835 | -35.38518 | 12130 ft | 347 kts | 248° |
| 2026-04-15 13:18 | -8.35662 | -35.40823 | 12834 ft | 352 kts | 248° |
| 2026-04-15 13:18 | -8.36505 | -35.43182 | 13552 ft | 357 kts | 248° |
| 2026-04-15 13:18 | -8.37341 | -35.45525 | 14349 ft | 358 kts | 249° |
| 2026-04-15 13:19 | -8.38184 | -35.47888 | 15065 ft | 362 kts | 249° |
| 2026-04-15 13:19 | -8.39040 | -35.50285 | 15805 ft | 364 kts | 249° |
| 2026-04-15 13:19 | -8.39902 | -35.52703 | 16502 ft | 367 kts | 249° |
| 2026-04-15 13:19 | -8.40762 | -35.55116 | 17180 ft | 370 kts | 249° |
| 2026-04-15 13:20 | -8.41636 | -35.57568 | 17842 ft | 373 kts | 249° |
| 2026-04-15 13:20 | -8.42517 | -35.60042 | 18492 ft | 376 kts | 249° |
| 2026-04-15 13:20 | -8.43395 | -35.62507 | 19114 ft | 379 kts | 250° |
| 2026-04-15 13:20 | -8.44286 | -35.65008 | 19731 ft | 382 kts | 250° |
| 2026-04-15 13:21 | -8.45185 | -35.67533 | 20346 ft | 385 kts | 250° |
| 2026-04-15 13:21 | -8.46085 | -35.70062 | 20930 ft | 388 kts | 250° |
| 2026-04-15 13:21 | -8.47011 | -35.72664 | 21503 ft | 391 kts | 250° |
| 2026-04-15 13:21 | -8.47926 | -35.75235 | 22044 ft | 394 kts | 250° |
| 2026-04-15 13:22 | -8.48852 | -35.77840 | 22594 ft | 397 kts | 251° |
| 2026-04-15 13:22 | -8.49798 | -35.80500 | 23104 ft | 400 kts | 251° |
| 2026-04-15 13:22 | -8.50734 | -35.83134 | 23613 ft | 403 kts | 251° |
| 2026-04-15 13:22 | -8.51678 | -35.85792 | 24101 ft | 406 kts | 251° |
| 2026-04-15 13:23 | -8.52637 | -35.88491 | 24585 ft | 409 kts | 251° |
| 2026-04-15 13:23 | -8.53595 | -35.91190 | 25050 ft | 412 kts | 251° |
| 2026-04-15 13:23 | -8.54574 | -35.93947 | 25522 ft | 415 kts | 251° |
| 2026-04-15 13:23 | -8.55540 | -35.96669 | 25948 ft | 418 kts | 251° |
| 2026-04-15 13:24 | -8.56523 | -35.99441 | 26387 ft | 421 kts | 251° |
| 2026-04-15 13:24 | -8.57517 | -36.02242 | 26796 ft | 424 kts | 252° |
| 2026-04-15 13:24 | -8.58515 | -36.05057 | 27213 ft | 427 kts | 252° |
| 2026-04-15 13:24 | -8.59511 | -36.07867 | 27592 ft | 430 kts | 252° |
| 2026-04-15 13:25 | -8.60526 | -36.10731 | 27989 ft | 433 kts | 252° |
| 2026-04-15 13:25 | -8.61539 | -36.13588 | 28354 ft | 436 kts | 252° |
| 2026-04-15 13:25 | -8.62562 | -36.16478 | 28732 ft | 439 kts | 252° |
| 2026-04-15 13:25 | -8.63590 | -36.19379 | 29086 ft | 442 kts | 252° |
| 2026-04-15 13:26 | -8.64624 | -36.22300 | 29471 ft | 443 kts | 252° |
| 2026-04-15 13:26 | -8.65653 | -36.25205 | 29909 ft | 444 kts | 252° |
| 2026-04-15 13:26 | -8.66695 | -36.28148 | 30360 ft | 444 kts | 252° |
| 2026-04-15 13:26 | -8.67722 | -36.31048 | 30799 ft | 443 kts | 252° |
| 2026-04-15 13:27 | -8.68759 | -36.33982 | 31236 ft | 443 kts | 253° |
| 2026-04-15 13:27 | -8.69789 | -36.36892 | 31669 ft | 443 kts | 253° |
| 2026-04-15 13:27 | -8.70835 | -36.39852 | 32081 ft | 443 kts | 253° |
| 2026-04-15 13:27 | -8.71861 | -36.42755 | 32496 ft | 442 kts | 253° |
| 2026-04-15 13:28 | -8.72895 | -36.45681 | 32881 ft | 442 kts | 253° |
| 2026-04-15 13:28 | -8.73917 | -36.48574 | 33269 ft | 442 kts | 253° |
| 2026-04-15 13:28 | -8.74956 | -36.51519 | 33645 ft | 442 kts | 253° |
| 2026-04-15 13:28 | -8.75982 | -36.54425 | 33974 ft | 442 kts | 253° |
| 2026-04-15 13:29 | -8.78052 | -36.60296 | 33990 ft | 441 kts | 253° |
| 2026-04-15 13:29 | -8.80085 | -36.66060 | 33994 ft | 437 kts | 253° |
| 2026-04-15 13:30 | -8.82128 | -36.71860 | 33993 ft | 439 kts | 253° |
| 2026-04-15 13:30 | -8.84167 | -36.77647 | 33993 ft | 439 kts | 253° |
| 2026-04-15 13:31 | -8.86213 | -36.83457 | 33993 ft | 439 kts | 253° |
| 2026-04-15 13:31 | -8.88251 | -36.89249 | 33993 ft | 439 kts | 253° |
| 2026-04-15 13:32 | -8.89820 | -36.95173 | 33993 ft | 434 kts | 265° |
| 2026-04-15 13:32 | -8.89930 | -36.98208 | 33992 ft | 430 kts | 277° |
| 2026-04-15 13:32 | -8.89475 | -37.01155 | 33998 ft | 427 kts | 285° |
| 2026-04-15 13:33 | -8.87260 | -37.06676 | 33992 ft | 423 kts | 304° |
| 2026-04-15 13:33 | -8.83441 | -37.11075 | 33990 ft | 420 kts | 322° |
| 2026-04-15 13:34 | -8.78380 | -37.13979 | 33994 ft | 420 kts | 339° |
| 2026-04-15 13:34 | -8.72701 | -37.15077 | 33994 ft | 422 kts | 358° |
| 2026-04-15 13:35 | -8.66894 | -37.14262 | 33994 ft | 426 kts | 14° |
| 2026-04-15 13:35 | -8.61148 | -37.13274 | 33989 ft | 421 kts | 352° |
| 2026-04-15 13:36 | -8.58309 | -37.14002 | 33996 ft | 420 kts | 335° |
| 2026-04-15 13:36 | -8.55856 | -37.15561 | 33993 ft | 420 kts | 319° |
| 2026-04-15 13:36 | -8.53991 | -37.17805 | 33994 ft | 423 kts | 302° |
| 2026-04-15 13:36 | -8.52876 | -37.20546 | 33992 ft | 428 kts | 285° |
| 2026-04-15 13:37 | -8.52629 | -37.23579 | 33994 ft | 434 kts | 268° |
| 2026-04-15 13:37 | -8.53285 | -37.26541 | 33993 ft | 440 kts | 251° |
| 2026-04-15 13:37 | -8.56124 | -37.32064 | 33986 ft | 443 kts | 247° |
| 2026-04-15 13:38 | -8.58401 | -37.37769 | 33992 ft | 439 kts | 255° |
| 2026-04-15 13:38 | -8.60076 | -37.43676 | 33992 ft | 437 kts | 258° |
| 2026-04-15 13:39 | -8.61473 | -37.49634 | 33993 ft | 437 kts | 260° |
| 2026-04-15 13:39 | -8.62743 | -37.55603 | 33993 ft | 437 kts | 261° |
| 2026-04-15 13:40 | -8.63969 | -37.61637 | 33993 ft | 436 kts | 261° |
| 2026-04-15 13:40 | -8.65049 | -37.67622 | 33993 ft | 436 kts | 263° |
| 2026-04-15 13:41 | -8.66145 | -37.73624 | 33993 ft | 436 kts | 262° |
| 2026-04-15 13:41 | -8.67296 | -37.79647 | 33993 ft | 436 kts | 262° |
| 2026-04-15 13:42 | -8.68465 | -37.85646 | 33993 ft | 436 kts | 262° |
| 2026-04-15 13:42 | -8.69648 | -37.91657 | 33993 ft | 436 kts | 261° |
| 2026-04-15 13:43 | -8.70832 | -37.97634 | 33995 ft | 436 kts | 261° |
| 2026-04-15 13:43 | -8.72026 | -38.03661 | 33999 ft | 436 kts | 261° |
| 2026-04-15 13:44 | -8.73209 | -38.09622 | 34001 ft | 436 kts | 261° |
| 2026-04-15 13:44 | -8.74401 | -38.15624 | 34002 ft | 436 kts | 261° |
| 2026-04-15 13:45 | -8.75590 | -38.21619 | 34004 ft | 437 kts | 261° |
| 2026-04-15 13:47 | -8.80343 | -38.45618 | 34019 ft | 436 kts | 261° |
| 2026-04-15 13:47 | -8.81525 | -38.51601 | 34020 ft | 436 kts | 261° |
| 2026-04-15 13:48 | -8.82717 | -38.57632 | 34020 ft | 436 kts | 261° |
| 2026-04-15 13:48 | -8.83899 | -38.63627 | 34020 ft | 436 kts | 261° |
| 2026-04-15 13:49 | -8.85078 | -38.69600 | 34020 ft | 436 kts | 262° |
| 2026-04-15 13:49 | -8.86285 | -38.75567 | 34020 ft | 436 kts | 261° |
| 2026-04-15 13:50 | -8.87510 | -38.81567 | 34019 ft | 436 kts | 261° |
| 2026-04-15 13:50 | -8.88734 | -38.87569 | 34020 ft | 436 kts | 261° |
| 2026-04-15 13:51 | -8.89943 | -38.93526 | 34020 ft | 437 kts | 261° |
| 2026-04-15 13:51 | -8.91156 | -38.99520 | 34020 ft | 438 kts | 260° |
| 2026-04-15 13:52 | -8.92382 | -39.05566 | 34020 ft | 439 kts | 260° |
| 2026-04-15 13:52 | -8.93606 | -39.11613 | 34020 ft | 440 kts | 259° |
| 2026-04-15 13:53 | -8.94833 | -39.17643 | 34019 ft | 441 kts | 259° |
| 2026-04-15 13:53 | -8.96066 | -39.23714 | 34020 ft | 440 kts | 259° |
| 2026-04-15 13:54 | -8.97288 | -39.29732 | 34020 ft | 441 kts | 259° |
| 2026-04-15 13:54 | -8.98522 | -39.35818 | 33774 ft | 438 kts | 260° |
| 2026-04-15 13:55 | -8.99131 | -39.38830 | 32955 ft | 442 kts | 260° |
| 2026-04-15 13:55 | -8.99747 | -39.41886 | 32099 ft | 445 kts | 260° |
| 2026-04-15 13:55 | -9.00358 | -39.44923 | 31305 ft | 447 kts | 259° |
| 2026-04-15 13:55 | -9.00981 | -39.48018 | 30477 ft | 449 kts | 259° |
| 2026-04-15 13:56 | -9.01601 | -39.51107 | 29818 ft | 446 kts | 259° |
| 2026-04-15 13:56 | -9.02208 | -39.54122 | 29266 ft | 441 kts | 259° |
| 2026-04-15 13:56 | -9.02821 | -39.57175 | 28627 ft | 439 kts | 259° |
| 2026-04-15 13:56 | -9.03423 | -39.60171 | 27996 ft | 436 kts | 259° |
| 2026-04-15 13:57 | -9.04025 | -39.63166 | 27368 ft | 434 kts | 258° |
| 2026-04-15 13:57 | -9.04622 | -39.66138 | 26746 ft | 431 kts | 258° |
| 2026-04-15 13:57 | -9.05212 | -39.69076 | 26123 ft | 429 kts | 258° |
| 2026-04-15 13:57 | -9.05804 | -39.72024 | 25498 ft | 426 kts | 258° |
| 2026-04-15 13:58 | -9.06390 | -39.74938 | 24872 ft | 423 kts | 258° |
| 2026-04-15 13:58 | -9.06969 | -39.77822 | 24258 ft | 421 kts | 258° |
| 2026-04-15 13:58 | -9.07552 | -39.80726 | 23632 ft | 418 kts | 257° |
| 2026-04-15 13:58 | -9.08127 | -39.83589 | 23011 ft | 415 kts | 257° |
| 2026-04-15 13:59 | -9.08697 | -39.86427 | 22396 ft | 412 kts | 257° |
| 2026-04-15 13:59 | -9.09262 | -39.89238 | 21784 ft | 409 kts | 257° |
| 2026-04-15 13:59 | -9.09824 | -39.92033 | 21188 ft | 405 kts | 257° |
| 2026-04-15 13:59 | -9.10376 | -39.94787 | 20561 ft | 402 kts | 257° |
| 2026-04-15 14:00 | -9.10932 | -39.97557 | 19953 ft | 399 kts | 257° |
| 2026-04-15 14:00 | -9.11477 | -40.00275 | 19351 ft | 396 kts | 257° |
| 2026-04-15 14:00 | -9.12017 | -40.02971 | 18764 ft | 392 kts | 257° |
| 2026-04-15 14:00 | -9.12557 | -40.05661 | 18361 ft | 383 kts | 257° |
| 2026-04-15 14:01 | -9.13595 | -40.10847 | 17857 ft | 375 kts | 257° |
| 2026-04-15 14:01 | -9.14109 | -40.13415 | 17587 ft | 367 kts | 257° |
| 2026-04-15 14:01 | -9.14605 | -40.15898 | 17091 ft | 364 kts | 257° |
| 2026-04-15 14:02 | -9.15106 | -40.18402 | 16479 ft | 364 kts | 257° |
| 2026-04-15 14:02 | -9.15606 | -40.20903 | 15884 ft | 363 kts | 257° |
| 2026-04-15 14:02 | -9.16109 | -40.23421 | 15265 ft | 363 kts | 257° |
| 2026-04-15 14:02 | -9.16594 | -40.25858 | 14638 ft | 354 kts | 257° |
| 2026-04-15 14:03 | -9.17082 | -40.28306 | 14041 ft | 352 kts | 257° |
| 2026-04-15 14:03 | -9.17558 | -40.30693 | 13427 ft | 341 kts | 257° |
| 2026-04-15 14:03 | -9.18015 | -40.32993 | 12844 ft | 330 kts | 257° |
| 2026-04-15 14:03 | -9.18460 | -40.35225 | 12288 ft | 321 kts | 257° |
| 2026-04-15 14:04 | -9.18896 | -40.37419 | 11731 ft | 312 kts | 257° |
| 2026-04-15 14:04 | -9.19316 | -40.39530 | 11197 ft | 304 kts | 257° |
| 2026-04-15 14:04 | -9.19726 | -40.41594 | 10715 ft | 296 kts | 257° |
| 2026-04-15 14:04 | -9.20125 | -40.43602 | 10441 ft | 282 kts | 257° |
| 2026-04-15 14:05 | -9.20501 | -40.45490 | 10351 ft | 272 kts | 256° |
| 2026-04-15 14:05 | -9.20880 | -40.47392 | 10229 ft | 276 kts | 256° |
| 2026-04-15 14:05 | -9.21262 | -40.49308 | 9958 ft | 279 kts | 257° |
| 2026-04-15 14:05 | -9.21642 | -40.51219 | 9543 ft | 276 kts | 257° |
| 2026-04-15 14:06 | -9.22017 | -40.53106 | 9162 ft | 271 kts | 257° |
| 2026-04-15 14:06 | -9.22387 | -40.54973 | 8787 ft | 268 kts | 257° |
| 2026-04-15 14:06 | -9.22745 | -40.56774 | 8424 ft | 262 kts | 256° |
| 2026-04-15 14:06 | -9.23102 | -40.58575 | 8067 ft | 257 kts | 256° |
| 2026-04-15 14:07 | -9.23453 | -40.60344 | 7717 ft | 257 kts | 256° |
| 2026-04-15 14:07 | -9.23801 | -40.62093 | 7367 ft | 257 kts | 256° |
| 2026-04-15 14:07 | -9.24158 | -40.63893 | 7005 ft | 256 kts | 257° |
| 2026-04-15 14:07 | -9.24502 | -40.65629 | 6662 ft | 255 kts | 257° |
| 2026-04-15 14:08 | -9.24853 | -40.67398 | 6336 ft | 252 kts | 257° |
| 2026-04-15 14:08 | -9.25190 | -40.69107 | 5967 ft | 242 kts | 257° |
| 2026-04-15 14:08 | -9.25510 | -40.70726 | 5751 ft | 229 kts | 257° |
| 2026-04-15 14:08 | -9.25818 | -40.72280 | 5723 ft | 226 kts | 256° |
| 2026-04-15 14:09 | -9.26133 | -40.73862 | 5647 ft | 228 kts | 257° |
| 2026-04-15 14:09 | -9.26447 | -40.75444 | 5506 ft | 229 kts | 257° |
| 2026-04-15 14:09 | -9.26756 | -40.77007 | 5394 ft | 226 kts | 257° |
| 2026-04-15 14:09 | -9.27069 | -40.78585 | 5320 ft | 227 kts | 256° |
| 2026-04-15 14:10 | -9.27657 | -40.80032 | 5225 ft | 223 kts | 231° |
| 2026-04-15 14:10 | -9.28859 | -40.80997 | 5100 ft | 219 kts | 200° |
| 2026-04-15 14:10 | -9.30318 | -40.81251 | 4857 ft | 208 kts | 174° |
| 2026-04-15 14:10 | -9.31654 | -40.80863 | 4621 ft | 198 kts | 149° |
| 2026-04-15 14:11 | -9.32655 | -40.79957 | 4426 ft | 195 kts | 125° |
| 2026-04-15 14:11 | -9.33186 | -40.78725 | 4211 ft | 187 kts | 102° |
| 2026-04-15 14:11 | -9.33172 | -40.77423 | 4028 ft | 187 kts | 79° |
| 2026-04-15 14:11 | -9.32678 | -40.76202 | 3837 ft | 186 kts | 66° |
| 2026-04-15 14:12 | -9.32115 | -40.75060 | 3692 ft | 178 kts | 66° |
| 2026-04-15 14:12 | -9.31579 | -40.73947 | 3642 ft | 175 kts | 67° |
| 2026-04-15 14:12 | -9.31191 | -40.72789 | 3494 ft | 172 kts | 85° |
| 2026-04-15 14:12 | -9.31259 | -40.71625 | 3195 ft | 160 kts | 103° |
| 2026-04-15 14:13 | -9.31561 | -40.70560 | 3131 ft | 158 kts | 109° |
| 2026-04-15 14:13 | -9.31914 | -40.69529 | 3059 ft | 151 kts | 110° |
| 2026-04-15 14:13 | -9.32259 | -40.68533 | 3040 ft | 149 kts | 110° |
| 2026-04-15 14:13 | -9.32601 | -40.67540 | 2989 ft | 151 kts | 110° |
| 2026-04-15 14:14 | -9.32948 | -40.66531 | 2933 ft | 150 kts | 110° |
| 2026-04-15 14:14 | -9.33289 | -40.65537 | 2875 ft | 150 kts | 110° |
| 2026-04-15 14:14 | -9.33638 | -40.64522 | 2538 ft | 153 kts | 110° |
| 2026-04-15 14:14 | -9.33971 | -40.63550 | 2243 ft | 138 kts | 109° |
| 2026-04-15 14:15 | -9.34281 | -40.62647 | 2146 ft | 138 kts | 109° |
| 2026-04-15 14:15 | -9.34601 | -40.61714 | 1934 ft | 140 kts | 109° |
| 2026-04-15 14:15 | -9.34919 | -40.60789 | 1714 ft | 135 kts | 109° |
| 2026-04-15 14:15 | -9.35233 | -40.59889 | 1632 ft | 137 kts | 110° |
| 2026-04-15 14:16 | -9.35550 | -40.58970 | 1444 ft | 139 kts | 109° |
| 2026-04-15 14:16 | -9.35856 | -40.58055 | 1285 ft | 135 kts | 109° |
| 2026-04-15 14:16 | -9.36144 | -40.57199 | 1266 ft | 92 kts | 108° |
| 2026-04-15 14:16 | -9.36210 | -40.57005 | 1269 ft | 0 kts | 108° |
| 2026-04-15 14:17 | -9.36231 | -40.56943 | 1269 ft | 17 kts | 108° |
| 2026-04-15 14:17 | -9.36287 | -40.56797 | 1270 ft | 22 kts | 131° |
| 2026-04-15 14:17 | -9.36407 | -40.56797 | 1271 ft | 15 kts | 193° |
| 2026-04-15 14:17 | -9.36487 | -40.56809 | 1272 ft | 8 kts | 197° |
| 2026-04-15 14:18 | -9.36490 | -40.56810 | 1272 ft | 0 kts | 197° |